Aviation Digital Data Service (ADDS)

Output produced by METARs form (2238 UTC 30 March 2017)
found at http://www.aviationweather.gov/adds/metars/
 
TAF COR SPHY 301700Z 3018/3118 36010KT 8000 SCT012 BKN080 TX15/3019Z TNM02/3011Z 
     TEMPO 3019/3023 SCT010 BKN040 
     BECMG 3023/3101 00000KT 9999 SCT015 BKN050
       
TAF SPQU 301700Z 3018/3118 26012KT 9999 SCT030 TX20/3019Z TN11/3121Z 
     BECMG 3020/3021 SCT020 
     PROB40 3022/3001 8000 RA FEW043TCU SCT050 BKN080 
     FM300100 00000KT 9999 SCT040 BKN080
       
SPHO 301700Z 3018/3118 06005KT 9999 FEW035 OVC080 TX23/3019Z TN12/3111Z 
     TEMPO 3020/3023 SCT035TCU BKN070 
     BECMG 3023/3101 00000KT FEW035 SCT080
       
TAF COR SPJR 301730Z 3018/3118 35006KT 9999 SCT030 BKN043 TX19/3019Z TN12/3111Z 
     TEMPO 3018/3023 8000 RA SCT025 OVC040 
     PROB40 3019/3021 6000 TSRA SCT020 OVC037 
     FM311100 VRB02KT 9999 SCT027 SCT040
       
SPHI 301700Z 3018/3118 21008KT 9999 BKN020 TX31/3019Z TN24/3111Z 
     BECMG 3020/3022 BKN030 SCT100 
     FM310500 17006KT 9999 SCT040 SCT080
       
TAF SPZO 301110Z 3012/3112 10003KT 9999 SCT036 BKN080 TX20/3019Z TN08/3111Z 
     TEMPO 3017/3021 36010KT FEW040TCU SCT050 BKN080 
     TEMPO 3022/3101 36010KT 8000 -TSRA FEW043CB SCT060 BKN080 
     FM310100 00000KT 9999 SCT043 BKN080
       
SPLO 301700Z 3018/3118 12015KT 9999 BKN040 TX26/3019Z TN18/3110Z 
     TEMPO 3020/3023 SCT040 
     BECMG 3100/3102 OVC025
       
TAF COR SPQT 301700Z 3018/3118 VRB04KT 9999 BKN020 SCT100 TX33/3020Z TN23/3111Z 
     TEMPO 3021/3023 03010KT 5000 SHRA BKN015 FEW025TCU 
     TEMPO 3104/3008 09010KT 5000 -RADZ BKN008 BKN100 
     TEMPO 3110/3113 24003KT 8000 BKN006 BKN100
       
SPJI 301700Z 3018/3118 00000KT 9999 BKN030 TX34/3020Z TN17/3111Z 
     TEMPO 3021/3103 12007KT 5000 SHRA BKN015 BKN080 
     TEMPO 3109/3113 8000 SCT010 BKN040
       
TAF COR SPJL 301700Z 3018/3118 09006KT 9999 SCT015 BKN080 TX16/3019Z TN05/3110Z 
     TEMPO 3100/3104 -TSRA FEW010CB OVC030 
     TEMPO 3110/3114 -RA BKN010 BKN080
       
TAF COR SPSO 301700Z 3018/3118 28008KT 8000 NSC TX30/3019Z TN19/3111Z 
     FM302000 23015KT CAVOK 
     FM310300 23006KT 8000 FEW020 SCT100
       
SPCL 301700Z 3018/3118 35006KT 9999 BKN015 BKN080 TX29/3019Z TN23/3111Z 
     TEMPO 3020/3022 8000 RA 
     FM3102000 VRB02KT 9999 SCT017 BKN100
       
SPTU 301110Z 3012/3112 00000KT 9999 FEW020 TX34/3021Z TN22/3111Z 
     TEMPO 3017/3021 33008KT 8000 RA SCT010TCU 
     BECMG 3021/3023 00000KT SCT020
       
TAF COR SPTN 301700Z 3018/3118 21010KT CAVOK TX28/3019Z TN17/3111Z 
     FM310200 VRB03KT 9999 BKN100
       
SPYL 301800Z 3018/3118 34010KT 8000 FEW008 BKN040 TX29/3019Z TN21/3111Z 
     TEMPO 3018/3020 6000 -RA FEW005 BKN020 
     FM302000 21010KT 9999 BKN020 
     FM311300 VRB02KT 9999 FEW010 BKN030
       
SPST 301700Z 3018/3118 15005KT 9999 SCT020 BKN080 TX32/3019Z TN22/3111Z 
     PROB40 3021/3101 8000 -RA BKN015 
     FM310200 00000KT 9999 SCT020 SCT100 
     FM311200 VRB02KT 8000 SCT015 BKN080
       
SPGM 301700Z 3018/3118 06005KT 9999 SCT020 BKN080 TX26/3019Z TN20/3111Z 
     TEMPO 3018/3020 8000 DZ BKN020 
     FM311300 00000KT 5000 BR SCT010 BKN030SPST 301700Z 3018/3118 15005KT 9999 SCT020 BKN080 TX32/3019Z TN22/3111Z 
     PROB40 3021/3101 8000 -RA BKN015 
     FM310200 00000KT 9999 SCT020 SCT100 
     FM311200 VRB02KT 8000 SCT015 BKN080
       
SPRU 301700Z 3018/3118 16010KT 9999 FEW040 BKN150 TX28/3019Z TN24/3111Z 
     BECMG 3020/3022 BKN040 
     FM310600 15006KT 8000 SCT025 BKN130
       
TAF SPME 301700Z 3018/3118 31005KT 8000 BKN012 OVC080 TX30/3019Z TN23/3111Z 
     TEMPO 3018/3020 9999 SCT012 BKN100 
     FM310000 VRB02KT 9999 BKN011 OVC070 
     TEMPO 3100/3003 7000 -RA OVC010 
     FM311200 00000KT 9999 SCT011 BKN015
       
SPMS 301700Z 3018/3118 03004KT 9999 SCT020 SCT100 TX33/3020Z TN23/3111Z 
     TEMPO 3021/3023 06010KT 5000 SHRA BKN015 FEW025TCU 
     TEMPO 3103/3107 09008KT 7000 -RADZ BKN008 BKN070 
     TEMPO 3110/3113 8000 BKN007 BKN100